sensor_id;sensor_type;location;lat;lon;timestamp;temperature;humidity
3648;DHT22;1840;48.892;15.312;2023-04-06T00:02:16;-5.10;85.30
3648;DHT22;1840;48.892;15.312;2023-04-06T00:04:44;-5.00;85.60
3648;DHT22;1840;48.892;15.312;2023-04-06T00:07:12;-5.00;85.40
3648;DHT22;1840;48.892;15.312;2023-04-06T00:09:42;-4.90;85.60
3648;DHT22;1840;48.892;15.312;2023-04-06T00:12:10;-5.00;85.90
3648;DHT22;1840;48.892;15.312;2023-04-06T00:14:38;-5.30;85.50
3648;DHT22;1840;48.892;15.312;2023-04-06T00:17:07;-5.50;86.20
3648;DHT22;1840;48.892;15.312;2023-04-06T00:19:35;-5.50;86.10
3648;DHT22;1840;48.892;15.312;2023-04-06T00:22:03;-5.50;86.20
3648;DHT22;1840;48.892;15.312;2023-04-06T00:24:31;-5.50;85.90
3648;DHT22;1840;48.892;15.312;2023-04-06T00:27:01;-5.30;86.00
3648;DHT22;1840;48.892;15.312;2023-04-06T00:29:29;-5.20;86.20
3648;DHT22;1840;48.892;15.312;2023-04-06T00:31:57;-5.40;86.80
3648;DHT22;1840;48.892;15.312;2023-04-06T00:34:25;-5.50;87.00
3648;DHT22;1840;48.892;15.312;2023-04-06T00:36:53;-5.70;87.60
3648;DHT22;1840;48.892;15.312;2023-04-06T00:39:21;-5.70;88.10
3648;DHT22;1840;48.892;15.312;2023-04-06T00:41:51;-5.60;87.70
3648;DHT22;1840;48.892;15.312;2023-04-06T00:44:21;-5.60;87.50
3648;DHT22;1840;48.892;15.312;2023-04-06T00:46:49;-5.60;87.20
3648;DHT22;1840;48.892;15.312;2023-04-06T00:49:17;-5.70;87.90
3648;DHT22;1840;48.892;15.312;2023-04-06T00:51:45;-5.80;88.10
3648;DHT22;1840;48.892;15.312;2023-04-06T00:54:13;-5.90;88.10
3648;DHT22;1840;48.892;15.312;2023-04-06T00:56:42;-5.80;87.70
3648;DHT22;1840;48.892;15.312;2023-04-06T00:59:11;-5.80;88.20
3648;DHT22;1840;48.892;15.312;2023-04-06T01:01:40;-5.70;87.20
3648;DHT22;1840;48.892;15.312;2023-04-06T01:04:08;-5.80;87.20
3648;DHT22;1840;48.892;15.312;2023-04-06T01:06:37;-6.00;87.10
3648;DHT22;1840;48.892;15.312;2023-04-06T01:09:05;-6.10;87.90
3648;DHT22;1840;48.892;15.312;2023-04-06T01:11:33;-6.20;88.90
3648;DHT22;1840;48.892;15.312;2023-04-06T01:14:01;-6.40;89.20
3648;DHT22;1840;48.892;15.312;2023-04-06T01:16:29;-6.10;88.50
3648;DHT22;1840;48.892;15.312;2023-04-06T01:18:59;-5.90;87.50
3648;DHT22;1840;48.892;15.312;2023-04-06T01:21:27;-5.90;87.70
3648;DHT22;1840;48.892;15.312;2023-04-06T01:23:56;-5.90;87.50
3648;DHT22;1840;48.892;15.312;2023-04-06T01:26:25;-5.80;87.60
3648;DHT22;1840;48.892;15.312;2023-04-06T01:28:53;-5.70;88.00
3648;DHT22;1840;48.892;15.312;2023-04-06T01:31:21;-5.60;87.80
3648;DHT22;1840;48.892;15.312;2023-04-06T01:33:50;-5.60;87.80
3648;DHT22;1840;48.892;15.312;2023-04-06T01:36:18;-5.50;87.90
3648;DHT22;1840;48.892;15.312;2023-04-06T01:38:46;-5.60;88.40
3648;DHT22;1840;48.892;15.312;2023-04-06T01:41:15;-5.90;88.80
3648;DHT22;1840;48.892;15.312;2023-04-06T01:43:44;-5.60;88.60
3648;DHT22;1840;48.892;15.312;2023-04-06T01:46:12;-5.60;87.80
3648;DHT22;1840;48.892;15.312;2023-04-06T01:48:40;-5.70;87.00
3648;DHT22;1840;48.892;15.312;2023-04-06T01:51:08;-5.90;87.40
3648;DHT22;1840;48.892;15.312;2023-04-06T01:53:36;-5.90;87.40
3648;DHT22;1840;48.892;15.312;2023-04-06T01:56:05;-5.90;87.60
3648;DHT22;1840;48.892;15.312;2023-04-06T01:58:35;-5.90;87.20
3648;DHT22;1840;48.892;15.312;2023-04-06T02:01:03;-5.90;87.30
3648;DHT22;1840;48.892;15.312;2023-04-06T02:03:31;-5.80;87.70
3648;DHT22;1840;48.892;15.312;2023-04-06T02:05:59;-5.70;87.50
3648;DHT22;1840;48.892;15.312;2023-04-06T02:08:27;-5.60;87.60
3648;DHT22;1840;48.892;15.312;2023-04-06T02:10:55;-5.50;87.70
3648;DHT22;1840;48.892;15.312;2023-04-06T02:13:23;-5.40;87.80
3648;DHT22;1840;48.892;15.312;2023-04-06T02:15:52;-5.40;88.20
3648;DHT22;1840;48.892;15.312;2023-04-06T02:18:21;-5.30;88.20
3648;DHT22;1840;48.892;15.312;2023-04-06T02:20:49;-5.30;87.80
3648;DHT22;1840;48.892;15.312;2023-04-06T02:23:17;-5.30;87.50
3648;DHT22;1840;48.892;15.312;2023-04-06T02:25:45;-5.30;87.40
3648;DHT22;1840;48.892;15.312;2023-04-06T02:28:14;-5.50;87.00
3648;DHT22;1840;48.892;15.312;2023-04-06T02:30:42;-5.60;87.20
3648;DHT22;1840;48.892;15.312;2023-04-06T02:33:11;-5.80;86.40
3648;DHT22;1840;48.892;15.312;2023-04-06T02:35:39;-6.00;86.70
3648;DHT22;1840;48.892;15.312;2023-04-06T02:38:08;-6.10;86.90
3648;DHT22;1840;48.892;15.312;2023-04-06T02:40:36;-6.10;87.00
3648;DHT22;1840;48.892;15.312;2023-04-06T02:43:04;-6.30;87.90
3648;DHT22;1840;48.892;15.312;2023-04-06T02:45:32;-6.30;88.50
3648;DHT22;1840;48.892;15.312;2023-04-06T02:48:00;-6.40;88.80
3648;DHT22;1840;48.892;15.312;2023-04-06T02:50:29;-6.30;88.40
3648;DHT22;1840;48.892;15.312;2023-04-06T02:52:57;-6.10;88.30
3648;DHT22;1840;48.892;15.312;2023-04-06T02:55:25;-6.10;88.00
3648;DHT22;1840;48.892;15.312;2023-04-06T02:57:53;-6.10;88.00
3648;DHT22;1840;48.892;15.312;2023-04-06T03:00:22;-6.10;88.30
3648;DHT22;1840;48.892;15.312;2023-04-06T03:02:50;-6.00;88.20
3648;DHT22;1840;48.892;15.312;2023-04-06T03:05:18;-6.00;88.40
3648;DHT22;1840;48.892;15.312;2023-04-06T03:07:47;-5.90;88.00
3648;DHT22;1840;48.892;15.312;2023-04-06T03:10:15;-6.00;88.50
3648;DHT22;1840;48.892;15.312;2023-04-06T03:12:43;-6.00;89.20
3648;DHT22;1840;48.892;15.312;2023-04-06T03:15:12;-6.00;88.40
3648;DHT22;1840;48.892;15.312;2023-04-06T03:17:40;-5.90;88.40
3648;DHT22;1840;48.892;15.312;2023-04-06T03:20:08;-5.90;88.20
3648;DHT22;1840;48.892;15.312;2023-04-06T03:22:37;-5.90;88.10
3648;DHT22;1840;48.892;15.312;2023-04-06T03:25:07;-5.90;88.00
3648;DHT22;1840;48.892;15.312;2023-04-06T03:27:35;-5.90;88.40
3648;DHT22;1840;48.892;15.312;2023-04-06T03:30:06;-6.00;88.60
3648;DHT22;1840;48.892;15.312;2023-04-06T03:32:34;-6.20;88.40
3648;DHT22;1840;48.892;15.312;2023-04-06T03:35:03;-6.20;88.10
3648;DHT22;1840;48.892;15.312;2023-04-06T03:37:31;-6.40;88.30
3648;DHT22;1840;48.892;15.312;2023-04-06T03:40:00;-6.40;89.10
3648;DHT22;1840;48.892;15.312;2023-04-06T03:42:29;-6.40;88.80
3648;DHT22;1840;48.892;15.312;2023-04-06T03:44:57;-6.60;88.00
3648;DHT22;1840;48.892;15.312;2023-04-06T03:47:25;-6.70;88.40
3648;DHT22;1840;48.892;15.312;2023-04-06T03:49:55;-6.90;88.50
3648;DHT22;1840;48.892;15.312;2023-04-06T03:52:23;-6.60;89.40
3648;DHT22;1840;48.892;15.312;2023-04-06T03:54:51;-6.50;89.40
3648;DHT22;1840;48.892;15.312;2023-04-06T03:57:19;-6.40;89.30
3648;DHT22;1840;48.892;15.312;2023-04-06T03:59:48;-6.50;89.60
3648;DHT22;1840;48.892;15.312;2023-04-06T04:02:16;-6.40;89.20
3648;DHT22;1840;48.892;15.312;2023-04-06T04:04:44;-6.50;89.30
3648;DHT22;1840;48.892;15.312;2023-04-06T04:07:13;-6.70;89.30
3648;DHT22;1840;48.892;15.312;2023-04-06T04:09:41;-6.70;90.00
3648;DHT22;1840;48.892;15.312;2023-04-06T04:12:09;-6.60;89.60
3648;DHT22;1840;48.892;15.312;2023-04-06T04:14:37;-6.50;89.40
3648;DHT22;1840;48.892;15.312;2023-04-06T04:17:06;-6.40;89.30
3648;DHT22;1840;48.892;15.312;2023-04-06T04:19:34;-6.30;89.00
3648;DHT22;1840;48.892;15.312;2023-04-06T04:22:02;-6.30;89.10
3648;DHT22;1840;48.892;15.312;2023-04-06T04:24:31;-6.20;88.90
3648;DHT22;1840;48.892;15.312;2023-04-06T04:27:00;-6.20;88.90
3648;DHT22;1840;48.892;15.312;2023-04-06T04:29:28;-6.40;89.00
3648;DHT22;1840;48.892;15.312;2023-04-06T04:31:56;-6.40;89.10
3648;DHT22;1840;48.892;15.312;2023-04-06T04:34:26;-6.50;88.50
3648;DHT22;1840;48.892;15.312;2023-04-06T04:36:54;-6.70;88.30
3648;DHT22;1840;48.892;15.312;2023-04-06T04:39:22;-6.70;89.00
3648;DHT22;1840;48.892;15.312;2023-04-06T04:41:51;-6.50;90.00
3648;DHT22;1840;48.892;15.312;2023-04-06T04:44:20;-6.40;89.80
3648;DHT22;1840;48.892;15.312;2023-04-06T04:46:48;-6.40;90.10
3648;DHT22;1840;48.892;15.312;2023-04-06T04:49:16;-6.40;90.20
3648;DHT22;1840;48.892;15.312;2023-04-06T04:51:45;-6.20;90.00
3648;DHT22;1840;48.892;15.312;2023-04-06T04:54:13;-6.20;89.80
3648;DHT22;1840;48.892;15.312;2023-04-06T04:56:41;-6.10;89.70
3648;DHT22;1840;48.892;15.312;2023-04-06T04:59:09;-6.10;89.70
3648;DHT22;1840;48.892;15.312;2023-04-06T05:01:38;-6.00;89.50
3648;DHT22;1840;48.892;15.312;2023-04-06T05:04:20;-6.20;90.10
3648;DHT22;1840;48.892;15.312;2023-04-06T05:06:49;-6.10;89.70
3648;DHT22;1840;48.892;15.312;2023-04-06T05:09:17;-6.00;90.00
3648;DHT22;1840;48.892;15.312;2023-04-06T05:11:46;-6.00;90.00
3648;DHT22;1840;48.892;15.312;2023-04-06T05:14:14;-5.80;89.60
3648;DHT22;1840;48.892;15.312;2023-04-06T05:16:42;-5.80;89.70
3648;DHT22;1840;48.892;15.312;2023-04-06T05:19:10;-5.60;89.60
3648;DHT22;1840;48.892;15.312;2023-04-06T05:21:39;-5.60;90.00
3648;DHT22;1840;48.892;15.312;2023-04-06T05:24:08;-5.60;90.00
3648;DHT22;1840;48.892;15.312;2023-04-06T05:26:36;-5.40;89.90
3648;DHT22;1840;48.892;15.312;2023-04-06T05:29:05;-5.30;90.10
3648;DHT22;1840;48.892;15.312;2023-04-06T05:31:33;-5.20;90.00
3648;DHT22;1840;48.892;15.312;2023-04-06T05:34:01;-5.00;89.90
3648;DHT22;1840;48.892;15.312;2023-04-06T05:36:29;-5.00;90.00
3648;DHT22;1840;48.892;15.312;2023-04-06T05:38:58;-5.00;90.00
3648;DHT22;1840;48.892;15.312;2023-04-06T05:41:28;-4.80;90.20
3648;DHT22;1840;48.892;15.312;2023-04-06T05:43:56;-4.80;89.90
3648;DHT22;1840;48.892;15.312;2023-04-06T05:46:24;-4.70;90.30
3648;DHT22;1840;48.892;15.312;2023-04-06T05:48:52;-4.60;90.20
3648;DHT22;1840;48.892;15.312;2023-04-06T05:51:20;-4.50;90.30
3648;DHT22;1840;48.892;15.312;2023-04-06T05:53:48;-4.30;90.20
3648;DHT22;1840;48.892;15.312;2023-04-06T05:56:17;-4.10;90.40
3648;DHT22;1840;48.892;15.312;2023-04-06T05:58:46;-4.00;90.30
3648;DHT22;1840;48.892;15.312;2023-04-06T06:01:14;-3.90;90.70
3648;DHT22;1840;48.892;15.312;2023-04-06T06:03:43;-3.50;90.40
3648;DHT22;1840;48.892;15.312;2023-04-06T06:06:11;-3.50;90.00
3648;DHT22;1840;48.892;15.312;2023-04-06T06:08:39;-3.50;90.00
3648;DHT22;1840;48.892;15.312;2023-04-06T06:11:07;-3.00;91.00
3648;DHT22;1840;48.892;15.312;2023-04-06T06:13:35;-2.50;90.50
3648;DHT22;1840;48.892;15.312;2023-04-06T06:16:05;-2.10;90.10
3648;DHT22;1840;48.892;15.312;2023-04-06T06:18:33;-1.70;89.50
3648;DHT22;1840;48.892;15.312;2023-04-06T06:21:03;-1.00;88.70
3648;DHT22;1840;48.892;15.312;2023-04-06T06:23:31;-0.50;87.60
3648;DHT22;1840;48.892;15.312;2023-04-06T06:25:59;0.00;86.40
3648;DHT22;1840;48.892;15.312;2023-04-06T06:28:28;0.30;84.30
3648;DHT22;1840;48.892;15.312;2023-04-06T06:30:56;0.90;83.70
3648;DHT22;1840;48.892;15.312;2023-04-06T06:33:26;1.40;82.70
3648;DHT22;1840;48.892;15.312;2023-04-06T06:35:54;1.60;81.50
3648;DHT22;1840;48.892;15.312;2023-04-06T06:38:23;1.50;80.30
3648;DHT22;1840;48.892;15.312;2023-04-06T06:40:51;1.80;80.00
3648;DHT22;1840;48.892;15.312;2023-04-06T06:43:19;1.90;79.40
3648;DHT22;1840;48.892;15.312;2023-04-06T06:45:47;2.50;79.70
3648;DHT22;1840;48.892;15.312;2023-04-06T06:48:15;2.70;79.10
3648;DHT22;1840;48.892;15.312;2023-04-06T06:50:47;3.00;77.20
3648;DHT22;1840;48.892;15.312;2023-04-06T06:53:15;3.20;77.40
3648;DHT22;1840;48.892;15.312;2023-04-06T06:55:43;3.50;76.20
3648;DHT22;1840;48.892;15.312;2023-04-06T06:58:12;3.30;77.40
3648;DHT22;1840;48.892;15.312;2023-04-06T07:00:40;3.90;76.30
3648;DHT22;1840;48.892;15.312;2023-04-06T07:03:08;3.60;75.60
3648;DHT22;1840;48.892;15.312;2023-04-06T07:05:36;3.90;75.60
3648;DHT22;1840;48.892;15.312;2023-04-06T07:08:08;3.90;76.20
3648;DHT22;1840;48.892;15.312;2023-04-06T07:10:36;4.50;75.30
3648;DHT22;1840;48.892;15.312;2023-04-06T07:13:04;4.50;75.30
3648;DHT22;1840;48.892;15.312;2023-04-06T07:15:33;4.80;74.30
3648;DHT22;1840;48.892;15.312;2023-04-06T07:18:01;4.90;74.80
3648;DHT22;1840;48.892;15.312;2023-04-06T07:20:29;5.20;74.30
3648;DHT22;1840;48.892;15.312;2023-04-06T07:22:57;5.20;74.40
3648;DHT22;1840;48.892;15.312;2023-04-06T07:25:26;5.00;72.70
3648;DHT22;1840;48.892;15.312;2023-04-06T07:27:54;5.00;73.60
3648;DHT22;1840;48.892;15.312;2023-04-06T07:30:23;4.90;75.00
3648;DHT22;1840;48.892;15.312;2023-04-06T07:32:52;4.60;75.60
3648;DHT22;1840;48.892;15.312;2023-04-06T07:35:22;4.90;75.60
3648;DHT22;1840;48.892;15.312;2023-04-06T07:37:51;4.70;75.90
3648;DHT22;1840;48.892;15.312;2023-04-06T07:40:19;4.80;76.10
3648;DHT22;1840;48.892;15.312;2023-04-06T07:42:48;5.00;76.40
3648;DHT22;1840;48.892;15.312;2023-04-06T07:45:16;5.20;75.30
3648;DHT22;1840;48.892;15.312;2023-04-06T07:47:45;5.40;72.50
3648;DHT22;1840;48.892;15.312;2023-04-06T07:50:13;5.40;72.90
3648;DHT22;1840;48.892;15.312;2023-04-06T07:52:42;5.20;71.40
3648;DHT22;1840;48.892;15.312;2023-04-06T07:55:10;4.80;71.00
3648;DHT22;1840;48.892;15.312;2023-04-06T07:57:38;4.90;72.00
3648;DHT22;1840;48.892;15.312;2023-04-06T08:00:09;4.80;69.00
3648;DHT22;1840;48.892;15.312;2023-04-06T08:02:37;4.20;70.90
3648;DHT22;1840;48.892;15.312;2023-04-06T08:05:05;4.60;71.80
3648;DHT22;1840;48.892;15.312;2023-04-06T08:07:34;4.90;69.60
3648;DHT22;1840;48.892;15.312;2023-04-06T08:10:02;4.40;71.80
3648;DHT22;1840;48.892;15.312;2023-04-06T08:12:32;4.10;71.20
3648;DHT22;1840;48.892;15.312;2023-04-06T08:15:00;3.70;70.50
3648;DHT22;1840;48.892;15.312;2023-04-06T08:17:31;3.70;71.50
3648;DHT22;1840;48.892;15.312;2023-04-06T08:20:01;4.10;71.50
3648;DHT22;1840;48.892;15.312;2023-04-06T08:22:30;3.60;69.60
3648;DHT22;1840;48.892;15.312;2023-04-06T08:24:58;3.40;70.10
3648;DHT22;1840;48.892;15.312;2023-04-06T08:27:26;3.70;69.00
3648;DHT22;1840;48.892;15.312;2023-04-06T08:29:54;4.10;69.60
3648;DHT22;1840;48.892;15.312;2023-04-06T08:32:22;4.60;69.40
3648;DHT22;1840;48.892;15.312;2023-04-06T08:34:54;4.80;70.80
3648;DHT22;1840;48.892;15.312;2023-04-06T08:37:22;4.60;67.90
3648;DHT22;1840;48.892;15.312;2023-04-06T08:39:50;4.30;68.10
3648;DHT22;1840;48.892;15.312;2023-04-06T08:42:20;4.00;68.10
3648;DHT22;1840;48.892;15.312;2023-04-06T08:44:49;3.70;68.20
3648;DHT22;1840;48.892;15.312;2023-04-06T08:47:19;4.00;68.80
3648;DHT22;1840;48.892;15.312;2023-04-06T08:49:51;3.70;66.80
3648;DHT22;1840;48.892;15.312;2023-04-06T08:52:20;3.50;68.00
3648;DHT22;1840;48.892;15.312;2023-04-06T08:54:48;3.80;67.90
3648;DHT22;1840;48.892;15.312;2023-04-06T08:57:16;4.10;67.10
3648;DHT22;1840;48.892;15.312;2023-04-06T08:59:46;4.10;63.70
3648;DHT22;1840;48.892;15.312;2023-04-06T09:02:17;4.40;65.70
3648;DHT22;1840;48.892;15.312;2023-04-06T09:04:46;4.60;65.10
3648;DHT22;1840;48.892;15.312;2023-04-06T09:07:15;4.60;67.40
3648;DHT22;1840;48.892;15.312;2023-04-06T09:09:45;5.30;65.50
3648;DHT22;1840;48.892;15.312;2023-04-06T09:12:23;5.80;63.60
3648;DHT22;1840;48.892;15.312;2023-04-06T09:14:51;6.20;62.60
3648;DHT22;1840;48.892;15.312;2023-04-06T09:17:20;5.80;61.30
3648;DHT22;1840;48.892;15.312;2023-04-06T09:19:49;6.10;62.60
3648;DHT22;1840;48.892;15.312;2023-04-06T09:22:18;6.50;58.80
3648;DHT22;1840;48.892;15.312;2023-04-06T09:24:49;7.00;59.30
3648;DHT22;1840;48.892;15.312;2023-04-06T09:27:17;7.20;59.80
3648;DHT22;1840;48.892;15.312;2023-04-06T09:29:46;7.10;57.00
3648;DHT22;1840;48.892;15.312;2023-04-06T09:32:14;6.60;59.40
3648;DHT22;1840;48.892;15.312;2023-04-06T09:34:44;5.80;60.20
3648;DHT22;1840;48.892;15.312;2023-04-06T09:37:17;5.70;63.10
3648;DHT22;1840;48.892;15.312;2023-04-06T09:39:47;5.80;60.40
3648;DHT22;1840;48.892;15.312;2023-04-06T09:42:23;5.90;61.00
3648;DHT22;1840;48.892;15.312;2023-04-06T09:44:52;6.10;61.70
3648;DHT22;1840;48.892;15.312;2023-04-06T09:47:20;6.00;59.70
3648;DHT22;1840;48.892;15.312;2023-04-06T09:49:56;5.90;60.40
3648;DHT22;1840;48.892;15.312;2023-04-06T09:52:26;5.60;59.30
3648;DHT22;1840;48.892;15.312;2023-04-06T09:55:03;5.90;57.90
3648;DHT22;1840;48.892;15.312;2023-04-06T09:57:35;6.00;60.70
3648;DHT22;1840;48.892;15.312;2023-04-06T10:00:06;6.10;60.10
3648;DHT22;1840;48.892;15.312;2023-04-06T10:02:44;6.60;60.30
3648;DHT22;1840;48.892;15.312;2023-04-06T10:05:22;6.60;59.20
3648;DHT22;1840;48.892;15.312;2023-04-06T10:07:55;6.30;61.00
3648;DHT22;1840;48.892;15.312;2023-04-06T10:10:29;6.10;60.70
3648;DHT22;1840;48.892;15.312;2023-04-06T10:12:58;6.30;60.20
3648;DHT22;1840;48.892;15.312;2023-04-06T10:15:27;6.70;60.60
3648;DHT22;1840;48.892;15.312;2023-04-06T10:17:56;6.40;59.30
3648;DHT22;1840;48.892;15.312;2023-04-06T10:20:29;6.60;59.80
3648;DHT22;1840;48.892;15.312;2023-04-06T10:23:02;6.40;60.50
3648;DHT22;1840;48.892;15.312;2023-04-06T10:25:34;6.10;59.30
3648;DHT22;1840;48.892;15.312;2023-04-06T10:28:06;6.40;60.40
3648;DHT22;1840;48.892;15.312;2023-04-06T10:30:34;6.40;61.80
3648;DHT22;1840;48.892;15.312;2023-04-06T10:35:12;6.40;59.40
3648;DHT22;1840;48.892;15.312;2023-04-06T10:37:49;6.60;60.90
3648;DHT22;1840;48.892;15.312;2023-04-06T10:40:22;6.20;61.40
3648;DHT22;1840;48.892;15.312;2023-04-06T10:42:51;6.10;63.50
3648;DHT22;1840;48.892;15.312;2023-04-06T10:45:21;5.90;64.20
3648;DHT22;1840;48.892;15.312;2023-04-06T10:47:51;5.90;63.80
3648;DHT22;1840;48.892;15.312;2023-04-06T10:50:22;5.70;64.60
3648;DHT22;1840;48.892;15.312;2023-04-06T10:52:59;5.90;65.30
3648;DHT22;1840;48.892;15.312;2023-04-06T10:55:27;5.90;64.90
3648;DHT22;1840;48.892;15.312;2023-04-06T10:57:56;5.70;63.00
3648;DHT22;1840;48.892;15.312;2023-04-06T11:00:24;5.70;65.80
3648;DHT22;1840;48.892;15.312;2023-04-06T11:03:09;5.60;65.80
3648;DHT22;1840;48.892;15.312;2023-04-06T11:05:38;5.60;67.00
3648;DHT22;1840;48.892;15.312;2023-04-06T11:08:07;5.60;65.80
3648;DHT22;1840;48.892;15.312;2023-04-06T11:10:35;5.70;67.80
3648;DHT22;1840;48.892;15.312;2023-04-06T11:13:03;6.10;66.20
3648;DHT22;1840;48.892;15.312;2023-04-06T11:15:34;6.40;65.50
3648;DHT22;1840;48.892;15.312;2023-04-06T11:18:05;6.20;62.60
3648;DHT22;1840;48.892;15.312;2023-04-06T11:20:33;5.90;64.70
3648;DHT22;1840;48.892;15.312;2023-04-06T11:23:03;6.00;64.50
3648;DHT22;1840;48.892;15.312;2023-04-06T11:25:31;6.30;64.00
3648;DHT22;1840;48.892;15.312;2023-04-06T11:27:59;6.50;64.30
3648;DHT22;1840;48.892;15.312;2023-04-06T11:30:28;6.60;63.50
3648;DHT22;1840;48.892;15.312;2023-04-06T11:33:01;6.10;65.40
3648;DHT22;1840;48.892;15.312;2023-04-06T11:35:31;6.00;62.70
3648;DHT22;1840;48.892;15.312;2023-04-06T11:38:04;6.00;65.20
3648;DHT22;1840;48.892;15.312;2023-04-06T11:40:32;6.20;64.10
3648;DHT22;1840;48.892;15.312;2023-04-06T11:43:00;6.90;63.70
3648;DHT22;1840;48.892;15.312;2023-04-06T11:45:28;7.40;62.80
3648;DHT22;1840;48.892;15.312;2023-04-06T11:48:17;7.40;62.40
3648;DHT22;1840;48.892;15.312;2023-04-06T11:50:46;7.40;62.40
3648;DHT22;1840;48.892;15.312;2023-04-06T11:53:17;8.00;60.10
3648;DHT22;1840;48.892;15.312;2023-04-06T11:55:45;7.90;59.70
3648;DHT22;1840;48.892;15.312;2023-04-06T11:58:14;8.00;61.70
3648;DHT22;1840;48.892;15.312;2023-04-06T12:00:43;8.20;60.70
3648;DHT22;1840;48.892;15.312;2023-04-06T12:03:13;8.40;60.10
3648;DHT22;1840;48.892;15.312;2023-04-06T12:05:44;8.10;61.90
3648;DHT22;1840;48.892;15.312;2023-04-06T12:08:12;7.70;59.70
3648;DHT22;1840;48.892;15.312;2023-04-06T12:10:42;7.20;61.50
3648;DHT22;1840;48.892;15.312;2023-04-06T12:13:10;7.40;62.40
3648;DHT22;1840;48.892;15.312;2023-04-06T12:15:39;6.70;60.40
3648;DHT22;1840;48.892;15.312;2023-04-06T12:18:07;6.40;62.90
3648;DHT22;1840;48.892;15.312;2023-04-06T12:20:35;7.20;63.50
3648;DHT22;1840;48.892;15.312;2023-04-06T12:23:04;7.60;60.90
3648;DHT22;1840;48.892;15.312;2023-04-06T12:25:32;7.60;60.40
3648;DHT22;1840;48.892;15.312;2023-04-06T12:28:01;7.70;60.40
3648;DHT22;1840;48.892;15.312;2023-04-06T12:30:29;8.10;61.60
3648;DHT22;1840;48.892;15.312;2023-04-06T12:32:58;8.20;58.90
3648;DHT22;1840;48.892;15.312;2023-04-06T12:35:27;8.20;57.60
3648;DHT22;1840;48.892;15.312;2023-04-06T12:37:55;8.70;59.50
3648;DHT22;1840;48.892;15.312;2023-04-06T12:40:23;7.90;59.90
3648;DHT22;1840;48.892;15.312;2023-04-06T12:42:51;7.90;59.70
3648;DHT22;1840;48.892;15.312;2023-04-06T12:45:20;7.50;59.90
3648;DHT22;1840;48.892;15.312;2023-04-06T12:47:48;7.90;59.90
3648;DHT22;1840;48.892;15.312;2023-04-06T12:50:16;8.50;58.80
3648;DHT22;1840;48.892;15.312;2023-04-06T12:52:45;8.70;57.30
3648;DHT22;1840;48.892;15.312;2023-04-06T12:55:13;9.00;58.60
3648;DHT22;1840;48.892;15.312;2023-04-06T12:57:41;8.80;60.20
3648;DHT22;1840;48.892;15.312;2023-04-06T13:00:09;8.50;61.00
3648;DHT22;1840;48.892;15.312;2023-04-06T13:02:39;8.10;57.90
3648;DHT22;1840;48.892;15.312;2023-04-06T13:05:13;6.90;58.60
3648;DHT22;1840;48.892;15.312;2023-04-06T13:07:45;6.60;60.80
3648;DHT22;1840;48.892;15.312;2023-04-06T13:10:14;6.50;61.50
3648;DHT22;1840;48.892;15.312;2023-04-06T13:12:42;7.10;62.00
3648;DHT22;1840;48.892;15.312;2023-04-06T13:15:10;7.70;58.80
3648;DHT22;1840;48.892;15.312;2023-04-06T13:17:40;8.30;58.60
3648;DHT22;1840;48.892;15.312;2023-04-06T13:20:09;8.40;58.40
3648;DHT22;1840;48.892;15.312;2023-04-06T13:22:37;8.70;58.10
3648;DHT22;1840;48.892;15.312;2023-04-06T13:25:05;8.60;57.40
3648;DHT22;1840;48.892;15.312;2023-04-06T13:27:33;8.50;60.00
3648;DHT22;1840;48.892;15.312;2023-04-06T13:30:03;8.10;61.00
3648;DHT22;1840;48.892;15.312;2023-04-06T13:32:32;8.00;61.00
3648;DHT22;1840;48.892;15.312;2023-04-06T13:35:03;7.80;59.20
3648;DHT22;1840;48.892;15.312;2023-04-06T13:37:31;7.50;59.00
3648;DHT22;1840;48.892;15.312;2023-04-06T13:40:00;7.10;59.60
3648;DHT22;1840;48.892;15.312;2023-04-06T13:42:29;6.50;59.60
3648;DHT22;1840;48.892;15.312;2023-04-06T13:44:57;6.40;60.60
3648;DHT22;1840;48.892;15.312;2023-04-06T13:47:25;6.60;60.70
3648;DHT22;1840;48.892;15.312;2023-04-06T13:49:54;6.70;59.70
3648;DHT22;1840;48.892;15.312;2023-04-06T13:52:24;6.80;58.80
3648;DHT22;1840;48.892;15.312;2023-04-06T13:54:52;6.90;59.90
3648;DHT22;1840;48.892;15.312;2023-04-06T13:57:20;7.10;60.10
3648;DHT22;1840;48.892;15.312;2023-04-06T13:59:49;7.10;59.60
3648;DHT22;1840;48.892;15.312;2023-04-06T14:02:17;6.80;60.90
3648;DHT22;1840;48.892;15.312;2023-04-06T14:04:46;6.80;61.70
3648;DHT22;1840;48.892;15.312;2023-04-06T14:07:14;6.80;60.80
3648;DHT22;1840;48.892;15.312;2023-04-06T14:09:43;6.80;60.50
3648;DHT22;1840;48.892;15.312;2023-04-06T14:12:11;7.10;59.90
3648;DHT22;1840;48.892;15.312;2023-04-06T14:14:39;7.20;59.90
3648;DHT22;1840;48.892;15.312;2023-04-06T14:17:08;7.30;58.70
3648;DHT22;1840;48.892;15.312;2023-04-06T14:19:36;7.30;61.10
3648;DHT22;1840;48.892;15.312;2023-04-06T14:22:04;7.00;59.80
3648;DHT22;1840;48.892;15.312;2023-04-06T14:24:32;6.90;59.70
3648;DHT22;1840;48.892;15.312;2023-04-06T14:27:03;6.90;59.80
3648;DHT22;1840;48.892;15.312;2023-04-06T14:29:31;7.00;60.10
3648;DHT22;1840;48.892;15.312;2023-04-06T14:31:59;7.20;60.00
3648;DHT22;1840;48.892;15.312;2023-04-06T14:34:27;7.30;59.70
3648;DHT22;1840;48.892;15.312;2023-04-06T14:36:55;7.10;59.10
3648;DHT22;1840;48.892;15.312;2023-04-06T14:39:23;6.90;59.50
3648;DHT22;1840;48.892;15.312;2023-04-06T14:41:51;6.40;59.10
3648;DHT22;1840;48.892;15.312;2023-04-06T14:44:21;6.20;60.90
3648;DHT22;1840;48.892;15.312;2023-04-06T14:46:49;6.50;61.00
3648;DHT22;1840;48.892;15.312;2023-04-06T14:49:17;6.70;60.50
3648;DHT22;1840;48.892;15.312;2023-04-06T14:51:45;6.70;59.30
3648;DHT22;1840;48.892;15.312;2023-04-06T14:54:13;6.80;59.40
3648;DHT22;1840;48.892;15.312;2023-04-06T14:56:41;6.80;59.00
3648;DHT22;1840;48.892;15.312;2023-04-06T14:59:09;6.70;58.20
3648;DHT22;1840;48.892;15.312;2023-04-06T15:01:39;6.70;57.90
3648;DHT22;1840;48.892;15.312;2023-04-06T15:04:07;6.50;58.90
3648;DHT22;1840;48.892;15.312;2023-04-06T15:06:35;6.50;59.70
3648;DHT22;1840;48.892;15.312;2023-04-06T15:09:03;6.80;60.40
3648;DHT22;1840;48.892;15.312;2023-04-06T15:11:31;7.00;58.90
3648;DHT22;1840;48.892;15.312;2023-04-06T15:14:00;7.30;60.50
3648;DHT22;1840;48.892;15.312;2023-04-06T15:16:28;7.40;60.00
3648;DHT22;1840;48.892;15.312;2023-04-06T15:19:00;7.40;58.80
3648;DHT22;1840;48.892;15.312;2023-04-06T15:21:29;7.40;59.40
3648;DHT22;1840;48.892;15.312;2023-04-06T15:23:57;7.30;58.80
3648;DHT22;1840;48.892;15.312;2023-04-06T15:26:26;7.40;58.40
3648;DHT22;1840;48.892;15.312;2023-04-06T15:28:54;7.30;57.90
3648;DHT22;1840;48.892;15.312;2023-04-06T15:31:22;7.20;58.90
3648;DHT22;1840;48.892;15.312;2023-04-06T15:34:06;7.10;58.30
3648;DHT22;1840;48.892;15.312;2023-04-06T15:36:35;7.00;58.20
3648;DHT22;1840;48.892;15.312;2023-04-06T15:39:04;7.10;58.40
3648;DHT22;1840;48.892;15.312;2023-04-06T15:41:35;7.10;58.20
3648;DHT22;1840;48.892;15.312;2023-04-06T15:44:03;7.10;59.50
3648;DHT22;1840;48.892;15.312;2023-04-06T15:46:31;7.20;59.30
3648;DHT22;1840;48.892;15.312;2023-04-06T15:48:59;7.20;59.30
3648;DHT22;1840;48.892;15.312;2023-04-06T15:51:28;7.20;59.50
3648;DHT22;1840;48.892;15.312;2023-04-06T15:53:57;7.00;57.90
3648;DHT22;1840;48.892;15.312;2023-04-06T15:56:25;7.10;57.70
3648;DHT22;1840;48.892;15.312;2023-04-06T15:58:53;7.20;58.30
3648;DHT22;1840;48.892;15.312;2023-04-06T16:01:21;6.80;58.10
3648;DHT22;1840;48.892;15.312;2023-04-06T16:03:49;6.70;58.50
3648;DHT22;1840;48.892;15.312;2023-04-06T16:06:17;6.70;58.60
3648;DHT22;1840;48.892;15.312;2023-04-06T16:08:46;6.50;58.30